Time;durP1;ratioP1;P1;durP2;ratioP2;P2;SDS_P1;SDS_P2;PMS_P1;PMS_P2;Temp;Humidity;BMP_temperature;BMP_pressure;BME280_temperature;BME280_humidity;BME280_pressure;Samples;Min_cycle;Max_cycle;Signal;HPM_P1;HPM_P2
2022/02/01 00:01:21;;;;;;;4.18;1.63;;;4.90;77.30;;;;;;5051145;28;20191;-73
2022/02/01 00:03:51;;;;;;;4.93;1.70;;;4.90;76.60;;;;;;5000849;28;20122;-73
2022/02/01 00:06:20;;;;;;;2.92;1.63;;;4.90;76.20;;;;;;978126;28;10002044;-74
2022/02/01 00:08:55;;;;;;;3.83;2.08;;;4.90;76.20;;;;;;5045654;28;20045;-73
2022/02/01 00:11:33;;;;;;;2.97;1.50;;;4.90;76.20;;;;;;5034324;28;20194;-72
2022/02/01 00:14:10;;;;;;;5.20;1.63;;;4.90;76.20;;;;;;5035873;28;20060;-73
2022/02/01 00:16:57;;;;;;;3.10;1.65;;;4.90;76.10;;;;;;5054237;28;20493;-73
2022/02/01 00:19:47;;;;;;;3.78;1.60;;;4.90;76.20;;;;;;5053137;28;20044;-72
2022/02/01 00:36:01;;;;;;;;;;;4.90;76.90;;;;;;5033140;28;20057;-72
2022/02/01 00:38:37;;;;;;;3.00;1.20;;;4.90;77.20;;;;;;5032218;28;19929;-73
2022/02/01 00:41:06;;;;;;;4.07;1.60;;;4.80;77.50;;;;;;5031947;28;20824;-72
2022/02/01 00:43:36;;;;;;;3.28;1.50;;;4.80;77.70;;;;;;5007558;28;20427;-70
2022/02/01 00:46:03;;;;;;;3.88;2.10;;;4.80;77.80;;;;;;5031167;28;20040;-73
2022/02/01 00:48:31;;;;;;;4.60;1.67;;;4.80;77.60;;;;;;5029941;28;20856;-72
2022/02/01 00:50:58;;;;;;;6.00;1.67;;;4.80;77.80;;;;;;5032244;28;20188;-72
2022/02/01 00:53:29;;;;;;;4.97;1.80;;;4.80;77.90;;;;;;5031281;28;20049;-72
2022/02/01 00:55:57;;;;;;;3.25;1.70;;;4.80;78.00;;;;;;5027871;28;20059;-72
2022/02/01 00:58:25;;;;;;;3.17;1.48;;;4.70;78.10;;;;;;5025883;28;20056;-72
2022/02/01 01:00:53;;;;;;;5.68;1.77;;;4.80;78.30;;;;;;5029613;28;20048;-73
2022/02/01 01:03:20;;;;;;;4.60;1.60;;;4.80;78.60;;;;;;5030243;28;20048;-71
2022/02/01 01:05:47;;;;;;;5.95;2.13;;;4.70;78.80;;;;;;5032648;28;20045;-72
2022/02/01 01:08:15;;;;;;;6.55;2.65;;;4.70;79.00;;;;;;5031115;28;20049;-72
2022/02/01 01:10:42;;;;;;;5.15;2.30;;;4.70;79.20;;;;;;5024437;28;20497;-72
2022/02/01 01:13:22;;;;;;;5.03;2.42;;;4.70;79.40;;;;;;5031859;28;20495;-72
2022/02/01 01:15:57;;;;;;;5.53;2.42;;;4.70;79.50;;;;;;5027374;28;20060;-73
2022/02/01 01:43:36;;;;;;;5.18;1.98;;;4.80;80.20;;;;;;5052401;28;20040;-74
2022/02/01 01:46:27;;;;;;;4.00;1.85;;;4.80;80.10;;;;;;5053227;28;20509;-73
2022/02/01 01:54:29;;;;;;;7.40;2.42;;;4.80;80.20;;;;;;5052612;28;20051;-74
2022/02/01 01:56:57;;;;;;;4.63;2.13;;;4.80;80.30;;;;;;5054097;28;20059;-75
2022/02/01 01:59:26;;;;;;;4.88;2.28;;;4.80;80.60;;;;;;5053434;28;20060;-73
2022/02/01 02:01:53;;;;;;;4.88;2.45;;;4.80;80.80;;;;;;5048528;28;20045;-72
2022/02/01 02:04:20;;;;;;;6.63;2.88;;;4.70;81.00;;;;;;4979494;28;20816;-72
2022/02/01 02:06:53;;;;;;;4.85;2.10;;;4.80;81.10;;;;;;1449867;28;10024028;-73
2022/02/01 02:09:20;;;;;;;5.95;2.25;;;4.80;81.20;;;;;;4681708;28;10001107;-73
2022/02/01 02:11:53;;;;;;;5.28;2.45;;;4.80;81.30;;;;;;5029933;28;20060;-72
2022/02/01 02:14:20;;;;;;;6.78;2.85;;;4.70;81.40;;;;;;5027442;28;20383;-72
2022/02/01 02:16:50;;;;;;;5.18;2.28;;;4.70;81.50;;;;;;5045116;28;20524;-73
2022/02/01 02:19:17;;;;;;;7.13;2.80;;;4.70;81.70;;;;;;5030596;28;20048;-72
2022/02/01 02:21:51;;;;;;;5.85;2.45;;;4.70;81.80;;;;;;5032117;28;20107;-72
2022/02/01 02:24:19;;;;;;;5.10;2.25;;;4.70;81.90;;;;;;5031504;28;20061;-72
2022/02/01 02:26:48;;;;;;;4.53;1.90;;;4.70;82.20;;;;;;5035343;28;20049;-72
2022/02/01 02:29:15;;;;;;;5.40;2.15;;;4.70;82.30;;;;;;5035294;28;20128;-72
2022/02/01 02:31:42;;;;;;;3.97;2.05;;;4.70;82.30;;;;;;5042543;28;20049;-72
2022/02/01 02:34:13;;;;;;;3.85;1.80;;;4.70;82.30;;;;;;5054970;28;20509;-71
2022/02/01 02:36:44;;;;;;;4.15;2.05;;;4.70;82.40;;;;;;5053322;28;20596;-73
2022/02/01 02:39:23;;;;;;;4.10;1.65;;;4.70;82.40;;;;;;5055470;28;20052;-71
2022/02/01 02:41:54;;;;;;;3.85;2.17;;;4.70;82.50;;;;;;5055766;28;20060;-73
2022/02/01 02:47:08;;;;;;;3.88;1.70;;;4.70;82.60;;;;;;5046795;28;20075;-72
2022/02/01 02:49:35;;;;;;;2.28;1.15;;;4.70;82.60;;;;;;5053954;28;20053;-73
2022/02/01 02:52:02;;;;;;;2.80;1.13;;;4.70;82.70;;;;;;5055502;28;20044;-72
2022/02/01 02:54:31;;;;;;;3.00;1.45;;;4.70;82.80;;;;;;5054664;28;20047;-73
2022/02/01 02:57:00;;;;;;;2.25;1.30;;;4.70;82.90;;;;;;5054576;28;20536;-72
2022/02/01 02:59:30;;;;;;;5.28;1.20;;;4.70;82.80;;;;;;5051684;28;20090;-73
2022/02/01 03:01:58;;;;;;;2.58;1.33;;;4.70;82.80;;;;;;5050720;28;20044;-73
2022/02/01 03:04:27;;;;;;;4.25;1.13;;;4.70;82.90;;;;;;5054970;28;20052;-73
2022/02/01 03:06:55;;;;;;;3.67;1.25;;;4.70;82.90;;;;;;5055291;28;20048;-72
2022/02/01 03:09:23;;;;;;;3.20;1.08;;;4.70;82.80;;;;;;5054938;28;20339;-72
2022/02/01 03:11:54;;;;;;;1.23;1.02;;;4.80;82.80;;;;;;5052282;28;20103;-72
2022/02/01 03:14:27;;;;;;;2.55;0.70;;;4.80;82.70;;;;;;5053112;28;20050;-72
2022/02/01 03:17:05;;;;;;;0.60;0.40;;;4.80;82.60;;;;;;5056829;28;20059;-72
2022/02/01 03:19:49;;;;;;;2.22;0.60;;;4.80;82.60;;;;;;5057259;28;20137;-73
2022/02/01 03:22:17;;;;;;;1.83;0.75;;;4.70;82.60;;;;;;5057164;28;20045;-71
2022/02/01 03:24:44;;;;;;;5.25;1.00;;;4.70;82.50;;;;;;5056568;28;20149;-72
2022/02/01 03:27:13;;;;;;;5.30;1.83;;;4.70;82.40;;;;;;5056479;28;20629;-72
2022/02/01 03:29:39;;;;;;;3.15;0.50;;;4.70;82.30;;;;;;5056005;28;20060;-72
2022/02/01 03:32:08;;;;;;;3.97;1.13;;;4.70;82.20;;;;;;5056058;28;20052;-74
2022/02/01 03:34:35;;;;;;;2.55;0.60;;;4.70;82.10;;;;;;5056806;28;20063;-72
2022/02/01 03:37:02;;;;;;;1.92;0.63;;;4.70;81.90;;;;;;5058140;28;20052;-72
2022/02/01 03:39:32;;;;;;;;;;;4.70;81.70;;;;;;5056635;28;20673;-72
2022/02/01 03:42:01;;;;;;;3.60;0.43;;;4.60;81.70;;;;;;5055528;28;19928;-73
2022/02/01 03:44:31;;;;;;;1.17;0.65;;;4.70;81.70;;;;;;5054636;28;20044;-72
2022/02/01 03:47:04;;;;;;;2.63;0.50;;;4.70;81.50;;;;;;5053994;28;20054;-71
2022/02/01 03:49:31;;;;;;;1.83;0.38;;;4.70;81.30;;;;;;5053797;28;20043;-72
2022/02/01 03:51:59;;;;;;;3.67;0.75;;;4.70;81.20;;;;;;5036300;28;20049;-71
2022/02/01 03:54:28;;;;;;;4.22;0.88;;;4.70;81.20;;;;;;5054551;28;20051;-72
2022/02/01 03:56:55;;;;;;;5.43;0.95;;;4.70;81.00;;;;;;5007717;28;20405;-72
2022/02/01 03:59:23;;;;;;;1.75;0.35;;;4.60;81.00;;;;;;5030311;28;20052;-72
2022/02/01 04:01:55;;;;;;;6.10;0.90;;;4.60;80.70;;;;;;5012915;28;20589;-71
2022/02/01 04:04:39;;;;;;;9.23;1.56;;;4.60;80.60;;;;;;4471547;28;10001161;-71
2022/02/01 04:07:08;;;;;;;2.70;0.95;;;4.60;80.40;;;;;;2087394;28;10002679;-72
2022/02/01 04:09:36;;;;;;;1.92;0.60;;;4.60;80.30;;;;;;5051246;28;20440;-72
2022/02/01 04:12:07;;;;;;;4.07;1.70;;;4.60;80.20;;;;;;5045474;28;20533;-72
2022/02/01 04:14:35;;;;;;;1.73;0.75;;;4.60;80.10;;;;;;5052809;28;20048;-72
2022/02/01 04:17:06;;;;;;;10.32;1.40;;;4.60;80.10;;;;;;5040167;28;20052;-73
2022/02/01 04:19:33;;;;;;;3.70;1.05;;;4.60;80.00;;;;;;5049877;28;20071;-73
2022/02/01 04:22:01;;;;;;;5.60;0.98;;;4.60;80.00;;;;;;5053744;28;20044;-72
2022/02/01 04:24:30;;;;;;;5.03;1.15;;;4.60;79.90;;;;;;5052641;28;20041;-72
2022/02/01 04:26:57;;;;;;;7.13;2.33;;;4.50;79.80;;;;;;5053901;28;20574;-73
2022/02/01 04:29:24;;;;;;;8.93;1.30;;;4.50;79.70;;;;;;5051976;28;20044;-73
2022/02/01 04:31:51;;;;;;;7.57;1.23;;;4.50;79.50;;;;;;5054120;28;20431;-72
2022/02/01 04:34:20;;;;;;;7.07;0.95;;;4.50;79.40;;;;;;5052827;28;20060;-72
2022/02/01 04:36:47;;;;;;;4.90;1.63;;;4.50;79.50;;;;;;5052913;28;20048;-72
2022/02/01 04:39:14;;;;;;;8.23;1.38;;;4.50;79.40;;;;;;5054304;28;20048;-72
2022/02/01 04:41:41;;;;;;;4.43;0.73;;;4.50;79.30;;;;;;5033622;28;20064;-73
2022/02/01 04:44:08;;;;;;;11.02;1.42;;;4.50;79.20;;;;;;5034177;28;20071;-72
2022/02/01 04:46:35;;;;;;;2.83;0.73;;;4.50;79.00;;;;;;5035385;28;20053;-72
2022/02/01 04:49:08;;;;;;;4.93;1.30;;;4.50;79.00;;;;;;5036297;28;20051;-72
2022/02/01 04:51:37;;;;;;;5.00;1.02;;;4.40;78.60;;;;;;5030040;28;20806;-72
2022/02/01 04:54:05;;;;;;;7.68;1.55;;;4.40;78.70;;;;;;5035337;28;20502;-72
2022/02/01 04:56:31;;;;;;;8.10;1.10;;;4.40;78.70;;;;;;5035020;28;20056;-72
2022/02/01 04:58:58;;;;;;;7.45;1.85;;;4.40;78.60;;;;;;5036282;28;20048;-72
2022/02/01 05:01:36;;;;;;;4.72;1.05;;;4.40;78.60;;;;;;5031785;28;20048;-73
2022/02/01 05:04:03;;;;;;;3.70;0.82;;;4.40;78.60;;;;;;5030220;28;20056;-71
2022/02/01 05:06:30;;;;;;;3.75;0.95;;;4.40;78.70;;;;;;5053872;28;20049;-72
2022/02/01 05:08:58;;;;;;;8.80;1.73;;;4.30;78.60;;;;;;5053937;28;20048;-72
2022/02/01 05:11:25;;;;;;;12.70;1.95;;;4.30;78.60;;;;;;5053944;28;20063;-72
2022/02/01 05:14:04;;;;;;;3.42;1.00;;;4.30;78.80;;;;;;5053699;28;20052;-71
2022/02/01 05:16:43;;;;;;;3.63;1.45;;;4.30;78.40;;;;;;5053370;28;20574;-73
2022/02/01 05:19:15;;;;;;;5.70;1.23;;;4.30;78.20;;;;;;5052803;28;20048;-72
2022/02/01 05:21:43;;;;;;;3.70;0.70;;;4.30;78.20;;;;;;5042316;28;20059;-71
2022/02/01 05:24:13;;;;;;;5.90;0.75;;;4.30;78.20;;;;;;5050575;28;20572;-71
2022/02/01 05:26:42;;;;;;;5.72;1.17;;;4.20;78.00;;;;;;5044429;28;20536;-71
2022/02/01 05:29:09;;;;;;;8.02;1.23;;;4.20;78.00;;;;;;5048065;28;20068;-72
2022/02/01 05:31:36;;;;;;;3.75;1.05;;;4.20;77.90;;;;;;5044930;28;21516;-72
2022/02/01 05:34:03;;;;;;;7.05;1.05;;;4.20;77.80;;;;;;5046149;28;20076;-72
2022/02/01 05:36:30;;;;;;;5.38;1.10;;;4.20;77.90;;;;;;5029317;28;20047;-73
2022/02/01 05:38:57;;;;;;;3.75;2.00;;;4.20;77.90;;;;;;5044334;28;20502;-72
2022/02/01 05:41:27;;;;;;;1.67;0.75;;;4.20;77.90;;;;;;5046029;28;20056;-72
2022/02/01 05:43:54;;;;;;;6.23;1.00;;;4.20;77.90;;;;;;5045723;28;20048;-72
2022/02/01 05:46:21;;;;;;;7.35;1.52;;;4.10;78.00;;;;;;5046927;28;20428;-72
2022/02/01 05:48:48;;;;;;;6.80;1.60;;;4.10;77.90;;;;;;5044321;28;20056;-72
2022/02/01 05:51:15;;;;;;;11.02;1.67;;;4.10;77.90;;;;;;5046592;28;20489;-72
2022/02/01 05:53:41;;;;;;;3.25;1.35;;;4.10;78.00;;;;;;5044520;28;20080;-73
2022/02/01 05:56:08;;;;;;;4.93;0.90;;;4.10;78.10;;;;;;5045117;28;20268;-73
2022/02/01 05:58:37;;;;;;;7.90;1.40;;;4.20;78.20;;;;;;5043637;28;20048;-72
2022/02/01 06:01:04;;;;;;;5.95;0.93;;;4.10;78.10;;;;;;5044391;28;20658;-73
2022/02/01 06:03:30;;;;;;;8.38;1.73;;;4.10;78.40;;;;;;5009638;28;20760;-71
2022/02/01 06:05:57;;;;;;;3.03;0.88;;;4.10;78.30;;;;;;5010979;28;20041;-72
2022/02/01 06:08:24;;;;;;;5.15;1.05;;;4.10;78.40;;;;;;979465;28;10002047;-71
2022/02/01 06:10:51;;;;;;;5.28;1.42;;;4.10;78.50;;;;;;5041738;28;20056;-73
2022/02/01 06:13:18;;;;;;;6.55;1.40;;;4.10;78.50;;;;;;5047517;28;20063;-73
2022/02/01 06:15:46;;;;;;;3.58;1.08;;;4.10;78.50;;;;;;5047051;28;20572;-72
2022/02/01 06:18:13;;;;;;;6.00;1.60;;;4.20;78.50;;;;;;5046392;28;20689;-73
2022/02/01 06:20:40;;;;;;;4.95;1.23;;;4.10;78.60;;;;;;5045404;28;20052;-72
2022/02/01 06:23:13;;;;;;;3.05;0.73;;;4.10;78.60;;;;;;5043675;28;20053;-71
2022/02/01 06:25:48;;;;;;;3.10;0.85;;;4.20;78.70;;;;;;5049450;28;20052;-73
2022/02/01 06:28:16;;;;;;;6.68;1.65;;;4.20;78.80;;;;;;5043873;28;20161;-73
2022/02/01 06:30:43;;;;;;;9.07;1.80;;;4.20;78.90;;;;;;5045827;28;20040;-73
2022/02/01 06:33:12;;;;;;;8.05;0.98;;;4.20;79.00;;;;;;5046886;28;20052;-72
2022/02/01 06:35:39;;;;;;;5.85;1.27;;;4.20;79.20;;;;;;5047902;28;20136;-72
2022/02/01 06:38:06;;;;;;;4.60;1.15;;;4.20;79.20;;;;;;5048782;28;21316;-72
2022/02/01 06:40:33;;;;;;;5.85;1.00;;;4.20;79.40;;;;;;5042951;28;20710;-73
2022/02/01 06:43:02;;;;;;;6.15;1.17;;;4.20;79.60;;;;;;5022751;28;20052;-73
2022/02/01 06:45:33;;;;;;;5.13;1.38;;;4.20;79.70;;;;;;5024444;28;20662;-72
2022/02/01 06:48:01;;;;;;;5.93;1.63;;;4.20;79.80;;;;;;5024105;28;20049;-73
2022/02/01 06:50:31;;;;;;;3.55;1.25;;;4.20;80.00;;;;;;5025570;28;20174;-73
2022/02/01 06:52:58;;;;;;;5.75;1.60;;;4.20;80.00;;;;;;5026035;28;20175;-74
2022/02/01 06:55:34;;;;;;;4.70;1.83;;;4.20;80.10;;;;;;5026259;28;20491;-72
2022/02/01 06:58:01;;;;;;;3.92;1.38;;;4.20;80.30;;;;;;5025714;28;20076;-73
2022/02/01 07:00:29;;;;;;;7.47;1.88;;;4.20;80.40;;;;;;5023132;28;20045;-72
2022/02/01 07:02:56;;;;;;;4.35;1.40;;;4.20;80.40;;;;;;5024805;28;21607;-73
2022/02/01 07:05:23;;;;;;;4.72;1.33;;;4.20;80.50;;;;;;5021871;28;20048;-72
2022/02/01 07:07:51;;;;;;;5.70;1.27;;;4.20;80.50;;;;;;5027437;28;20072;-73
2022/02/01 07:10:19;;;;;;;2.88;1.13;;;4.20;80.50;;;;;;5030050;28;20053;-71
2022/02/01 07:12:46;;;;;;;8.18;1.92;;;4.20;80.50;;;;;;5028867;28;20053;-72
2022/02/01 07:15:13;;;;;;;5.47;1.70;;;4.20;80.60;;;;;;5029834;28;20056;-72
2022/02/01 07:17:47;;;;;;;4.10;1.50;;;4.20;80.70;;;;;;5027860;28;20457;-72
2022/02/01 07:20:15;;;;;;;4.45;1.42;;;4.20;80.80;;;;;;5028449;28;20045;-71
2022/02/01 07:22:44;;;;;;;2.45;1.00;;;4.20;80.90;;;;;;5048067;28;20041;-72
2022/02/01 07:25:16;;;;;;;5.40;1.80;;;4.30;81.00;;;;;;5049037;28;20194;-72
2022/02/01 07:27:47;;;;;;;4.15;1.35;;;4.20;80.90;;;;;;5033126;28;20162;-73
2022/02/01 07:30:18;;;;;;;8.25;1.58;;;4.30;80.90;;;;;;5028224;28;20314;-72
2022/02/01 07:32:45;;;;;;;6.10;1.60;;;4.30;81.00;;;;;;5029706;28;20052;-73
2022/02/01 07:35:13;;;;;;;5.40;2.05;;;4.30;81.10;;;;;;5043098;28;20056;-73
2022/02/01 07:37:40;;;;;;;4.88;1.35;;;4.30;81.20;;;;;;5040703;28;20224;-74
2022/02/01 07:40:08;;;;;;;3.33;1.45;;;4.30;81.20;;;;;;5047072;28;20045;-72
2022/02/01 07:42:38;;;;;;;4.10;1.38;;;4.30;81.10;;;;;;5045582;28;20414;-73
2022/02/01 07:45:06;;;;;;;5.15;1.60;;;4.30;81.00;;;;;;5048772;28;20075;-72
2022/02/01 07:47:33;;;;;;;7.30;1.42;;;4.30;81.10;;;;;;5049332;28;20053;-72
2022/02/01 07:50:00;;;;;;;4.43;1.13;;;4.30;81.10;;;;;;5051894;28;20306;-73
2022/02/01 07:52:28;;;;;;;3.53;1.02;;;4.30;81.10;;;;;;5048582;28;20146;-72
2022/02/01 07:54:54;;;;;;;3.25;1.25;;;4.30;81.10;;;;;;5051702;28;20044;-73
2022/02/01 07:57:21;;;;;;;3.65;2.00;;;4.30;81.10;;;;;;5049822;28;20068;-72
2022/02/01 07:59:50;;;;;;;5.43;1.92;;;4.30;81.10;;;;;;5049623;28;20055;-71
2022/02/01 08:02:20;;;;;;;3.45;1.27;;;4.30;81.20;;;;;;5046244;28;20058;-73
2022/02/01 08:04:57;;;;;;;7.74;2.04;;;4.40;81.20;;;;;;4875579;28;10001370;-73
2022/02/01 08:07:24;;;;;;;6.07;1.73;;;4.40;81.20;;;;;;693470;28;10001970;-73
2022/02/01 08:09:55;;;;;;;2.92;1.42;;;4.40;81.20;;;;;;5047379;28;20651;-72
2022/02/01 08:12:49;;;;;;;6.95;2.65;;;4.40;81.20;;;;;;5050370;28;21904;-73
2022/02/01 08:18:11;;;;;;;4.35;1.02;;;4.40;81.10;;;;;;5041587;28;20410;-73
2022/02/01 08:20:45;;;;;;;8.27;1.23;;;4.50;81.10;;;;;;5049371;28;20052;-73
2022/02/01 08:23:12;;;;;;;3.97;1.45;;;4.50;81.10;;;;;;5047625;28;20064;-72
2022/02/01 08:25:40;;;;;;;4.68;1.30;;;4.50;81.10;;;;;;5048263;28;20056;-72
2022/02/01 08:28:07;;;;;;;3.78;1.35;;;4.50;81.10;;;;;;5048820;28;20070;-72
2022/02/01 08:30:35;;;;;;;4.90;1.30;;;4.60;80.90;;;;;;5048765;28;20417;-72
2022/02/01 08:33:03;;;;;;;3.22;1.30;;;4.60;80.80;;;;;;5048130;28;20794;-73
2022/02/01 08:35:30;;;;;;;4.05;1.20;;;4.60;80.80;;;;;;5047614;28;20048;-73
2022/02/01 08:37:57;;;;;;;7.65;1.50;;;4.60;80.80;;;;;;5049144;28;20044;-72
2022/02/01 08:40:25;;;;;;;4.88;1.63;;;4.60;80.60;;;;;;5046066;28;20887;-71
2022/02/01 08:42:52;;;;;;;8.10;2.15;;;4.60;80.60;;;;;;5045839;28;20055;-73
2022/02/01 08:45:23;;;;;;;4.50;0.90;;;4.60;80.60;;;;;;5045485;28;20048;-71
2022/02/01 08:47:52;;;;;;;3.72;0.80;;;4.60;80.60;;;;;;5044121;28;20052;-73
2022/02/01 08:50:23;;;;;;;5.15;1.05;;;4.60;80.60;;;;;;5044913;28;20055;-72
2022/02/01 08:52:51;;;;;;;4.32;1.02;;;4.60;80.60;;;;;;5046968;28;20767;-73
2022/02/01 08:55:31;;;;;;;3.05;1.00;;;4.60;80.40;;;;;;5048624;28;20082;-72
2022/02/01 08:57:58;;;;;;;3.90;0.73;;;4.60;80.40;;;;;;5046527;28;20048;-72
2022/02/01 09:00:25;;;;;;;4.82;0.70;;;4.60;80.30;;;;;;5045437;28;20071;-72
2022/02/01 09:02:54;;;;;;;2.75;1.10;;;4.60;80.10;;;;;;5046083;28;20056;-72
2022/02/01 09:05:21;;;;;;;4.60;1.15;;;4.70;79.90;;;;;;5046240;28;20064;-71
2022/02/01 09:07:48;;;;;;;4.50;1.25;;;4.70;79.80;;;;;;5044661;28;20055;-73
2022/02/01 09:10:15;;;;;;;2.25;0.77;;;4.70;79.80;;;;;;5046450;28;20070;-72
2022/02/01 09:12:42;;;;;;;3.60;0.90;;;4.70;79.70;;;;;;5044057;28;20086;-73
2022/02/01 09:15:11;;;;;;;5.38;0.70;;;4.70;79.60;;;;;;5047060;28;20063;-73
2022/02/01 09:17:38;;;;;;;3.60;1.08;;;4.70;79.50;;;;;;5045474;28;20484;-72
2022/02/01 09:20:08;;;;;;;4.55;0.82;;;4.70;79.40;;;;;;5045948;28;20539;-73
2022/02/01 09:22:35;;;;;;;7.75;1.02;;;4.70;79.30;;;;;;5027746;28;20432;-71
2022/02/01 09:25:01;;;;;;;0.93;0.68;;;4.70;79.30;;;;;;5047650;28;20052;-73
2022/02/01 09:27:30;;;;;;;7.35;0.60;;;4.80;79.40;;;;;;5043563;28;20052;-72
2022/02/01 09:29:57;;;;;;;3.30;0.80;;;4.80;79.20;;;;;;5044582;28;20067;-73
2022/02/01 09:32:24;;;;;;;2.28;0.73;;;4.90;79.30;;;;;;5047001;28;20048;-73
2022/02/01 09:34:52;;;;;;;1.90;0.90;;;4.90;79.20;;;;;;5050961;28;20445;-71
2022/02/01 09:37:21;;;;;;;3.20;0.73;;;5.00;79.30;;;;;;5050346;28;20044;-72
2022/02/01 09:39:48;;;;;;;10.50;1.15;;;4.90;79.20;;;;;;5049862;28;20176;-73
2022/02/01 09:42:15;;;;;;;4.53;0.82;;;5.00;79.20;;;;;;5047840;28;20159;-73
2022/02/01 09:44:44;;;;;;;8.25;1.92;;;5.00;79.10;;;;;;5050896;28;20140;-71
2022/02/01 09:47:11;;;;;;;4.88;1.38;;;5.00;79.00;;;;;;5052667;28;20056;-71
2022/02/01 09:49:38;;;;;;;2.67;1.10;;;5.00;78.90;;;;;;5053012;28;20052;-72
2022/02/01 09:52:06;;;;;;;4.03;1.20;;;5.10;79.00;;;;;;5052868;28;20103;-72
2022/02/01 09:54:34;;;;;;;2.47;0.57;;;5.10;78.80;;;;;;5044091;28;20446;-72
2022/02/01 09:57:07;;;;;;;3.05;0.80;;;5.10;78.90;;;;;;5047024;28;20048;-71
2022/02/01 09:59:35;;;;;;;6.95;1.90;;;5.10;78.80;;;;;;5046139;28;20490;-73
2022/02/01 10:02:07;;;;;;;1.90;0.40;;;5.10;78.90;;;;;;5044952;28;20484;-72
2022/02/01 10:04:37;;;;;;;2.50;0.30;;;5.10;78.80;;;;;;3656782;28;10020685;-72
2022/02/01 10:07:09;;;;;;;3.80;0.80;;;5.10;78.90;;;;;;2433039;28;10002138;-72
2022/02/01 10:09:52;;;;;;;4.05;0.63;;;5.10;78.80;;;;;;5043571;28;20053;-72
2022/02/01 10:12:19;;;;;;;3.45;1.00;;;5.10;78.90;;;;;;5025556;28;20124;-73
2022/02/01 10:14:54;;;;;;;2.67;0.80;;;5.10;78.90;;;;;;5024246;28;20049;-72
2022/02/01 10:17:30;;;;;;;5.28;0.85;;;5.10;78.90;;;;;;5027810;28;20053;-71
2022/02/01 10:19:57;;;;;;;4.18;0.77;;;5.10;79.00;;;;;;5023802;28;20045;-73
2022/02/01 10:22:32;;;;;;;5.18;1.50;;;5.10;79.10;;;;;;5023334;28;20045;-72
2022/02/01 10:25:03;;;;;;;6.40;1.52;;;5.20;79.10;;;;;;5024379;28;20100;-72
2022/02/01 10:27:31;;;;;;;3.50;0.73;;;5.10;79.10;;;;;;5041823;28;20048;-72
2022/02/01 10:30:07;;;;;;;3.50;0.88;;;5.10;79.10;;;;;;5025598;28;20533;-72
2022/02/01 10:32:50;;;;;;;2.03;0.82;;;5.10;79.00;;;;;;5043041;28;20076;-72
2022/02/01 10:35:26;;;;;;;3.95;1.63;;;5.10;78.90;;;;;;5045358;28;21074;-73
2022/02/01 10:37:58;;;;;;;6.90;1.05;;;5.10;78.80;;;;;;5047728;28;20044;-73
2022/02/01 10:40:39;;;;;;;3.38;0.90;;;5.10;78.80;;;;;;5043455;28;20068;-72
2022/02/01 10:43:16;;;;;;;2.88;0.90;;;5.10;78.70;;;;;;5045521;28;20041;-73
2022/02/01 10:45:44;;;;;;;3.83;0.95;;;5.10;78.70;;;;;;5033034;28;20173;-73
2022/02/01 10:48:13;;;;;;;4.40;1.05;;;5.10;78.70;;;;;;5048550;28;20056;-72
2022/02/01 10:50:40;;;;;;;3.03;0.70;;;5.10;78.70;;;;;;5045600;28;20048;-73
2022/02/01 10:53:17;;;;;;;8.90;0.93;;;5.10;78.70;;;;;;5048001;28;20053;-74
2022/02/01 10:55:46;;;;;;;1.42;0.80;;;5.10;78.70;;;;;;5037049;28;20129;-72
2022/02/01 10:58:15;;;;;;;3.55;0.80;;;5.10;78.70;;;;;;5047832;28;20052;-73
2022/02/01 11:00:43;;;;;;;4.60;0.90;;;5.10;78.70;;;;;;5048226;28;20539;-73
2022/02/01 11:03:13;;;;;;;4.15;1.05;;;5.10;78.70;;;;;;5050483;28;20049;-72
2022/02/01 11:05:42;;;;;;;4.22;0.70;;;5.10;78.70;;;;;;5048055;28;20056;-72
2022/02/01 11:08:13;;;;;;;2.83;0.73;;;5.10;78.80;;;;;;5033425;28;20053;-73
2022/02/01 11:10:45;;;;;;;3.47;1.35;;;5.10;79.10;;;;;;5049728;28;20053;-72
2022/02/01 11:13:13;;;;;;;5.35;1.65;;;5.10;79.30;;;;;;5041138;28;20044;-71
2022/02/01 11:15:40;;;;;;;7.75;2.20;;;5.10;79.70;;;;;;5048037;28;20055;-73
2022/02/01 11:18:12;;;;;;;7.50;2.85;;;5.10;79.70;;;;;;5042767;28;20048;-73
2022/02/01 11:20:39;;;;;;;6.63;1.70;;;5.10;79.80;;;;;;5048356;28;20052;-72
2022/02/01 11:23:07;;;;;;;5.22;1.80;;;5.10;79.90;;;;;;5045135;28;20071;-72
2022/02/01 11:25:45;;;;;;;6.50;1.73;;;5.10;79.90;;;;;;5050966;28;20064;-72
2022/02/01 11:28:34;;;;;;;2.85;0.70;;;5.00;80.10;;;;;;5031553;28;20072;-73
2022/02/01 11:31:03;;;;;;;2.03;0.75;;;5.00;79.80;;;;;;5041760;28;20051;-72
2022/02/01 11:33:37;;;;;;;5.80;1.13;;;5.00;79.60;;;;;;5049455;28;20942;-72
2022/02/01 11:36:05;;;;;;;5.07;1.50;;;5.00;79.40;;;;;;5048773;28;20052;-72
2022/02/01 11:38:33;;;;;;;3.28;0.85;;;5.00;79.40;;;;;;5050247;28;20045;-72
2022/02/01 11:41:03;;;;;;;5.07;1.30;;;5.00;79.20;;;;;;5048433;28;20121;-73
2022/02/01 11:43:32;;;;;;;5.33;1.47;;;5.10;79.30;;;;;;5046225;28;20084;-72
2022/02/01 11:46:01;;;;;;;1.90;1.10;;;5.10;79.40;;;;;;5047865;28;20506;-73
2022/02/01 11:48:31;;;;;;;2.15;0.85;;;5.10;79.50;;;;;;5045690;28;23829;-71
2022/02/01 11:51:00;;;;;;;3.25;0.80;;;5.10;79.50;;;;;;5049587;28;20053;-72
2022/02/01 11:53:35;;;;;;;6.05;0.80;;;5.10;79.70;;;;;;5048208;28;20597;-72
2022/02/01 11:56:05;;;;;;;3.50;0.65;;;5.00;80.20;;;;;;5047955;28;20064;-73
2022/02/01 11:58:36;;;;;;;4.10;1.10;;;5.00;80.60;;;;;;5046826;28;20589;-71
2022/02/01 12:01:06;;;;;;;5.70;1.38;;;5.00;80.80;;;;;;5046058;28;20165;-72
2022/02/01 12:03:37;;;;;;;4.25;1.60;;;5.10;81.00;;;;;;5047443;28;20048;-73
2022/02/01 12:06:08;;;;;;;4.43;0.90;;;5.00;81.30;;;;;;5048988;28;20048;-73
2022/02/01 12:08:38;;;;;;;2.15;0.90;;;5.00;81.50;;;;;;5052903;28;20056;-72
2022/02/01 12:11:08;;;;;;;3.00;0.57;;;4.90;81.60;;;;;;5053029;28;20084;-72
2022/02/01 12:13:37;;;;;;;2.58;1.48;;;4.90;81.90;;;;;;5053999;28;20068;-72
2022/02/01 12:16:07;;;;;;;3.17;1.27;;;4.90;82.10;;;;;;5053492;28;20190;-74
2022/02/01 12:18:44;;;;;;;4.33;1.43;;;4.90;82.20;;;;;;5053637;28;20048;-72
2022/02/01 12:21:21;;;;;;;4.40;1.15;;;4.90;82.40;;;;;;5055608;28;20524;-73
2022/02/01 12:23:50;;;;;;;6.28;1.27;;;4.80;82.50;;;;;;5055170;28;20053;-72
2022/02/01 12:26:22;;;;;;;3.72;0.80;;;4.80;82.60;;;;;;5035854;28;20049;-72
2022/02/01 12:28:53;;;;;;;4.70;1.00;;;4.80;82.80;;;;;;5035196;28;20076;-72
2022/02/01 12:31:22;;;;;;;2.97;0.93;;;4.80;82.90;;;;;;5038908;28;20746;-72
2022/02/01 12:33:52;;;;;;;2.40;0.70;;;4.80;82.80;;;;;;5053551;28;20053;-72
2022/02/01 12:36:26;;;;;;;1.58;0.90;;;4.70;82.90;;;;;;5052549;28;20045;-73
2022/02/01 12:38:59;;;;;;;3.17;0.93;;;4.70;83.00;;;;;;5054826;28;20048;-73
2022/02/01 12:41:31;;;;;;;1.05;0.50;;;4.70;83.20;;;;;;5054663;28;20056;-73
2022/02/01 12:46:48;;;;;;;1.00;0.52;;;4.70;83.10;;;;;;5050455;28;20071;-73
2022/02/01 12:49:16;;;;;;;2.50;0.90;;;4.70;83.30;;;;;;5054897;28;21086;-73
2022/02/01 12:51:44;;;;;;;1.83;0.57;;;4.70;83.40;;;;;;5053852;28;20110;-73
2022/02/01 12:54:23;;;;;;;1.38;0.50;;;4.70;83.30;;;;;;5054066;28;20135;-73
2022/02/01 12:56:51;;;;;;;5.57;1.25;;;4.70;83.50;;;;;;5054363;28;20060;-73
2022/02/01 12:59:21;;;;;;;1.50;0.70;;;4.70;83.80;;;;;;5053695;28;20051;-71
2022/02/01 13:01:49;;;;;;;3.53;1.13;;;4.70;83.70;;;;;;5051311;28;20143;-73
2022/02/01 13:04:22;;;;;;;2.10;0.70;;;4.70;83.80;;;;;;5053287;28;20131;-73
2022/02/01 13:06:51;;;;;;;4.07;0.80;;;4.70;83.90;;;;;;5054060;28;20090;-72
2022/02/01 13:15:07;;;;;;;2.78;0.82;;;4.70;83.80;;;;;;5054740;28;20044;-73
2022/02/01 13:17:43;;;;;;;3.10;0.70;;;4.60;83.80;;;;;;5043621;28;20142;-72
2022/02/01 13:20:17;;;;;;;2.95;1.35;;;4.60;84.00;;;;;;5038193;28;20049;-73
2022/02/01 13:22:55;;;;;;;2.85;0.70;;;4.60;84.10;;;;;;5046099;28;20683;-72
2022/02/01 13:25:34;;;;;;;2.53;0.73;;;4.60;84.10;;;;;;5043589;28;20165;-75
2022/02/01 13:28:03;;;;;;;1.95;0.75;;;4.60;84.20;;;;;;5041202;28;20043;-72
2022/02/01 13:30:34;;;;;;;1.58;0.70;;;4.60;84.20;;;;;;5045338;28;20501;-73
2022/02/01 13:33:07;;;;;;;1.30;0.60;;;4.60;84.40;;;;;;5053115;28;20222;-73
2022/02/01 13:35:43;;;;;;;1.05;0.60;;;4.60;84.60;;;;;;5052866;28;20160;-70
2022/02/01 13:38:12;;;;;;;3.05;1.15;;;4.60;84.80;;;;;;5024532;28;20140;-72
2022/02/01 13:40:40;;;;;;;1.85;0.70;;;4.60;84.90;;;;;;5036226;28;20477;-73
2022/02/01 13:43:17;;;;;;;5.32;1.05;;;4.60;84.90;;;;;;5029023;28;20360;-72
2022/02/01 13:45:48;;;;;;;2.85;0.50;;;4.60;85.00;;;;;;5028112;28;20135;-71
2022/02/01 13:48:20;;;;;;;1.90;0.55;;;4.60;85.00;;;;;;5044052;28;20586;-73
2022/02/01 13:50:48;;;;;;;1.70;0.75;;;4.70;85.20;;;;;;5043125;28;20045;-73
2022/02/01 13:53:17;;;;;;;1.60;0.90;;;4.70;85.00;;;;;;5046953;28;20044;-72
2022/02/01 13:55:45;;;;;;;1.58;0.77;;;4.70;85.10;;;;;;5046367;28;20048;-73
2022/02/01 13:58:13;;;;;;;1.73;0.80;;;4.70;85.30;;;;;;5045909;28;20076;-72
2022/02/01 14:00:42;;;;;;;3.38;1.20;;;4.70;85.40;;;;;;5047094;28;20713;-73
2022/02/01 14:03:20;;;;;;;2.33;1.02;;;4.70;85.30;;;;;;5049498;28;20048;-74
2022/02/01 14:06:22;;;;;;;2.83;1.13;;;4.80;85.20;;;;;;2663493;28;10280368;-71
2022/02/01 14:08:59;;;;;;;3.05;1.30;;;4.80;85.40;;;;;;3654319;28;10001848;-74